sensor_id;sensor_type;location;lat;lon;timestamp;P1;durP1;ratioP1;P2;durP2;ratioP2
9124;SDS011;4597;48.730;9.114;2022-07-24T00:01:28;9.50;;;8.75;;
9124;SDS011;4597;48.730;9.114;2022-07-24T00:03:54;10.32;;;9.43;;
9124;SDS011;4597;48.730;9.114;2022-07-24T00:06:19;9.90;;;9.20;;
9124;SDS011;4597;48.730;9.114;2022-07-24T00:08:45;9.70;;;9.00;;
9124;SDS011;4597;48.730;9.114;2022-07-24T00:11:10;10.10;;;9.20;;
9124;SDS011;4597;48.730;9.114;2022-07-24T00:13:36;9.52;;;8.75;;
9124;SDS011;4597;48.730;9.114;2022-07-24T00:16:02;10.10;;;9.40;;
9124;SDS011;4597;48.730;9.114;2022-07-24T00:18:28;10.15;;;9.35;;
9124;SDS011;4597;48.730;9.114;2022-07-24T00:20:53;9.65;;;8.82;;
9124;SDS011;4597;48.730;9.114;2022-07-24T00:23:19;9.73;;;8.82;;
9124;SDS011;4597;48.730;9.114;2022-07-24T00:25:46;10.05;;;9.25;;
9124;SDS011;4597;48.730;9.114;2022-07-24T00:28:12;10.52;;;9.73;;
9124;SDS011;4597;48.730;9.114;2022-07-24T00:30:37;9.57;;;8.80;;
9124;SDS011;4597;48.730;9.114;2022-07-24T00:33:03;9.70;;;9.00;;
9124;SDS011;4597;48.730;9.114;2022-07-24T00:35:28;10.20;;;9.40;;
9124;SDS011;4597;48.730;9.114;2022-07-24T00:37:54;10.95;;;10.13;;
9124;SDS011;4597;48.730;9.114;2022-07-24T00:40:20;10.07;;;9.30;;
9124;SDS011;4597;48.730;9.114;2022-07-24T00:42:45;10.68;;;9.88;;
9124;SDS011;4597;48.730;9.114;2022-07-24T00:45:11;10.60;;;9.80;;
9124;SDS011;4597;48.730;9.114;2022-07-24T00:47:37;9.75;;;9.05;;
9124;SDS011;4597;48.730;9.114;2022-07-24T00:50:03;10.25;;;9.32;;
9124;SDS011;4597;48.730;9.114;2022-07-24T00:52:29;10.63;;;9.77;;
9124;SDS011;4597;48.730;9.114;2022-07-24T00:54:55;10.48;;;9.70;;
9124;SDS011;4597;48.730;9.114;2022-07-24T00:57:20;10.13;;;9.35;;
9124;SDS011;4597;48.730;9.114;2022-07-24T00:59:46;10.95;;;10.15;;
9124;SDS011;4597;48.730;9.114;2022-07-24T01:02:12;10.52;;;9.73;;
9124;SDS011;4597;48.730;9.114;2022-07-24T01:04:38;11.85;;;10.80;;
9124;SDS011;4597;48.730;9.114;2022-07-24T01:07:04;10.93;;;9.98;;
9124;SDS011;4597;48.730;9.114;2022-07-24T01:09:31;10.75;;;9.85;;
9124;SDS011;4597;48.730;9.114;2022-07-24T01:11:57;10.30;;;9.48;;
9124;SDS011;4597;48.730;9.114;2022-07-24T01:14:24;10.52;;;9.70;;
9124;SDS011;4597;48.730;9.114;2022-07-24T01:16:50;10.05;;;9.32;;
9124;SDS011;4597;48.730;9.114;2022-07-24T01:19:16;9.88;;;8.95;;
9124;SDS011;4597;48.730;9.114;2022-07-24T01:21:46;10.48;;;9.68;;
9124;SDS011;4597;48.730;9.114;2022-07-24T01:24:16;11.43;;;10.25;;
9124;SDS011;4597;48.730;9.114;2022-07-24T01:26:43;10.80;;;9.85;;
9124;SDS011;4597;48.730;9.114;2022-07-24T01:29:08;10.48;;;9.65;;
9124;SDS011;4597;48.730;9.114;2022-07-24T01:31:34;10.87;;;9.97;;
9124;SDS011;4597;48.730;9.114;2022-07-24T01:33:59;10.38;;;9.57;;
9124;SDS011;4597;48.730;9.114;2022-07-24T01:36:25;10.98;;;9.85;;
9124;SDS011;4597;48.730;9.114;2022-07-24T01:38:51;10.35;;;9.55;;
9124;SDS011;4597;48.730;9.114;2022-07-24T01:41:16;10.88;;;9.82;;
9124;SDS011;4597;48.730;9.114;2022-07-24T01:43:42;10.27;;;9.38;;
9124;SDS011;4597;48.730;9.114;2022-07-24T01:46:07;11.43;;;10.43;;
9124;SDS011;4597;48.730;9.114;2022-07-24T01:48:34;10.67;;;9.87;;
9124;SDS011;4597;48.730;9.114;2022-07-24T01:51:00;10.50;;;9.60;;
9124;SDS011;4597;48.730;9.114;2022-07-24T01:53:25;10.13;;;9.23;;
9124;SDS011;4597;48.730;9.114;2022-07-24T01:55:52;11.02;;;10.13;;
9124;SDS011;4597;48.730;9.114;2022-07-24T01:58:18;10.65;;;9.85;;
9124;SDS011;4597;48.730;9.114;2022-07-24T02:00:44;11.30;;;10.20;;
9124;SDS011;4597;48.730;9.114;2022-07-24T02:03:10;11.17;;;10.27;;
9124;SDS011;4597;48.730;9.114;2022-07-24T02:05:35;10.13;;;9.33;;
9124;SDS011;4597;48.730;9.114;2022-07-24T02:08:01;10.47;;;9.47;;
9124;SDS011;4597;48.730;9.114;2022-07-24T02:10:27;10.13;;;9.43;;
9124;SDS011;4597;48.730;9.114;2022-07-24T02:12:53;10.20;;;9.40;;
9124;SDS011;4597;48.730;9.114;2022-07-24T02:15:19;10.63;;;9.70;;
9124;SDS011;4597;48.730;9.114;2022-07-24T02:17:48;9.67;;;8.87;;
9124;SDS011;4597;48.730;9.114;2022-07-24T02:20:15;10.00;;;9.20;;
9124;SDS011;4597;48.730;9.114;2022-07-24T02:22:42;10.13;;;9.37;;
9124;SDS011;4597;48.730;9.114;2022-07-24T02:25:08;10.50;;;9.60;;
9124;SDS011;4597;48.730;9.114;2022-07-24T02:27:34;10.17;;;9.23;;
9124;SDS011;4597;48.730;9.114;2022-07-24T02:30:00;10.17;;;9.30;;
9124;SDS011;4597;48.730;9.114;2022-07-24T02:32:25;10.00;;;9.10;;
9124;SDS011;4597;48.730;9.114;2022-07-24T02:34:51;9.77;;;8.87;;
9124;SDS011;4597;48.730;9.114;2022-07-24T02:37:17;9.90;;;9.03;;
9124;SDS011;4597;48.730;9.114;2022-07-24T02:39:42;9.80;;;9.00;;
9124;SDS011;4597;48.730;9.114;2022-07-24T02:42:08;10.27;;;9.37;;
9124;SDS011;4597;48.730;9.114;2022-07-24T02:44:33;9.40;;;8.63;;
9124;SDS011;4597;48.730;9.114;2022-07-24T02:46:59;10.30;;;8.77;;
9124;SDS011;4597;48.730;9.114;2022-07-24T02:49:24;10.33;;;9.63;;
9124;SDS011;4597;48.730;9.114;2022-07-24T02:51:50;9.67;;;8.80;;
9124;SDS011;4597;48.730;9.114;2022-07-24T02:54:15;10.80;;;9.70;;
9124;SDS011;4597;48.730;9.114;2022-07-24T02:56:42;10.30;;;9.43;;
9124;SDS011;4597;48.730;9.114;2022-07-24T02:59:07;9.63;;;8.83;;
9124;SDS011;4597;48.730;9.114;2022-07-24T03:01:33;9.70;;;8.77;;
9124;SDS011;4597;48.730;9.114;2022-07-24T03:03:59;10.00;;;9.20;;
9124;SDS011;4597;48.730;9.114;2022-07-24T03:06:24;10.60;;;9.80;;
9124;SDS011;4597;48.730;9.114;2022-07-24T03:08:50;10.40;;;9.60;;
9124;SDS011;4597;48.730;9.114;2022-07-24T03:11:15;9.83;;;8.93;;
9124;SDS011;4597;48.730;9.114;2022-07-24T03:13:41;10.20;;;9.40;;
9124;SDS011;4597;48.730;9.114;2022-07-24T03:16:06;11.17;;;10.17;;
9124;SDS011;4597;48.730;9.114;2022-07-24T03:18:32;10.43;;;9.63;;
9124;SDS011;4597;48.730;9.114;2022-07-24T03:20:57;10.33;;;9.30;;
9124;SDS011;4597;48.730;9.114;2022-07-24T03:23:23;10.33;;;9.33;;
9124;SDS011;4597;48.730;9.114;2022-07-24T03:25:48;10.77;;;9.80;;
9124;SDS011;4597;48.730;9.114;2022-07-24T03:28:14;10.37;;;9.37;;
9124;SDS011;4597;48.730;9.114;2022-07-24T03:30:40;9.80;;;9.00;;
9124;SDS011;4597;48.730;9.114;2022-07-24T03:33:06;10.83;;;9.97;;
9124;SDS011;4597;48.730;9.114;2022-07-24T03:35:31;11.10;;;10.20;;
9124;SDS011;4597;48.730;9.114;2022-07-24T03:37:57;10.30;;;9.30;;
9124;SDS011;4597;48.730;9.114;2022-07-24T03:40:22;10.20;;;9.20;;
9124;SDS011;4597;48.730;9.114;2022-07-24T03:42:48;10.43;;;9.50;;
9124;SDS011;4597;48.730;9.114;2022-07-24T03:45:14;10.73;;;9.83;;
9124;SDS011;4597;48.730;9.114;2022-07-24T03:47:39;10.27;;;9.53;;
9124;SDS011;4597;48.730;9.114;2022-07-24T03:50:05;9.80;;;9.00;;
9124;SDS011;4597;48.730;9.114;2022-07-24T03:52:31;10.30;;;9.40;;
9124;SDS011;4597;48.730;9.114;2022-07-24T03:54:56;11.23;;;10.33;;
9124;SDS011;4597;48.730;9.114;2022-07-24T03:57:22;11.80;;;10.70;;
9124;SDS011;4597;48.730;9.114;2022-07-24T03:59:47;11.53;;;10.37;;
9124;SDS011;4597;48.730;9.114;2022-07-24T04:02:13;11.53;;;10.53;;
9124;SDS011;4597;48.730;9.114;2022-07-24T04:04:39;11.33;;;10.43;;
9124;SDS011;4597;48.730;9.114;2022-07-24T04:07:04;11.00;;;10.10;;
9124;SDS011;4597;48.730;9.114;2022-07-24T04:09:30;11.43;;;10.40;;
9124;SDS011;4597;48.730;9.114;2022-07-24T04:11:55;11.53;;;10.70;;
9124;SDS011;4597;48.730;9.114;2022-07-24T04:14:21;11.07;;;10.20;;
9124;SDS011;4597;48.730;9.114;2022-07-24T04:16:46;11.23;;;10.33;;
9124;SDS011;4597;48.730;9.114;2022-07-24T04:19:12;11.17;;;10.27;;
9124;SDS011;4597;48.730;9.114;2022-07-24T04:21:37;10.27;;;9.57;;
9124;SDS011;4597;48.730;9.114;2022-07-24T04:24:03;10.87;;;9.97;;
9124;SDS011;4597;48.730;9.114;2022-07-24T04:26:29;10.30;;;9.40;;
9124;SDS011;4597;48.730;9.114;2022-07-24T04:28:55;10.30;;;9.50;;
9124;SDS011;4597;48.730;9.114;2022-07-24T04:31:20;10.03;;;9.17;;
9124;SDS011;4597;48.730;9.114;2022-07-24T04:33:46;10.20;;;9.40;;
9124;SDS011;4597;48.730;9.114;2022-07-24T04:36:11;9.73;;;8.90;;
9124;SDS011;4597;48.730;9.114;2022-07-24T04:38:37;10.87;;;9.80;;
9124;SDS011;4597;48.730;9.114;2022-07-24T04:41:02;10.10;;;9.30;;
9124;SDS011;4597;48.730;9.114;2022-07-24T04:43:28;9.97;;;9.17;;
9124;SDS011;4597;48.730;9.114;2022-07-24T04:45:54;10.30;;;9.50;;
9124;SDS011;4597;48.730;9.114;2022-07-24T04:48:20;9.93;;;9.13;;
9124;SDS011;4597;48.730;9.114;2022-07-24T04:50:45;10.63;;;9.73;;
9124;SDS011;4597;48.730;9.114;2022-07-24T04:53:11;10.43;;;9.53;;
9124;SDS011;4597;48.730;9.114;2022-07-24T04:55:37;10.40;;;9.50;;
9124;SDS011;4597;48.730;9.114;2022-07-24T04:58:02;10.10;;;9.30;;
9124;SDS011;4597;48.730;9.114;2022-07-24T05:00:28;11.40;;;10.40;;
9124;SDS011;4597;48.730;9.114;2022-07-24T05:02:54;10.27;;;9.37;;
9124;SDS011;4597;48.730;9.114;2022-07-24T05:05:19;10.27;;;9.47;;
9124;SDS011;4597;48.730;9.114;2022-07-24T05:07:45;9.93;;;9.13;;
9124;SDS011;4597;48.730;9.114;2022-07-24T05:10:10;9.83;;;8.93;;
9124;SDS011;4597;48.730;9.114;2022-07-24T05:12:36;11.17;;;10.10;;
9124;SDS011;4597;48.730;9.114;2022-07-24T05:15:02;10.50;;;9.43;;
9124;SDS011;4597;48.730;9.114;2022-07-24T05:17:28;9.87;;;9.17;;
9124;SDS011;4597;48.730;9.114;2022-07-24T05:19:54;10.73;;;9.73;;
9124;SDS011;4597;48.730;9.114;2022-07-24T05:22:20;10.93;;;10.03;;
9124;SDS011;4597;48.730;9.114;2022-07-24T05:24:45;10.33;;;9.43;;
9124;SDS011;4597;48.730;9.114;2022-07-24T05:27:11;10.13;;;9.33;;
9124;SDS011;4597;48.730;9.114;2022-07-24T05:29:36;10.20;;;9.10;;
9124;SDS011;4597;48.730;9.114;2022-07-24T05:32:01;11.30;;;10.30;;
9124;SDS011;4597;48.730;9.114;2022-07-24T05:34:27;9.73;;;9.03;;
9124;SDS011;4597;48.730;9.114;2022-07-24T05:36:54;10.67;;;9.87;;
9124;SDS011;4597;48.730;9.114;2022-07-24T05:39:19;10.43;;;9.57;;
9124;SDS011;4597;48.730;9.114;2022-07-24T05:41:45;10.57;;;9.57;;
9124;SDS011;4597;48.730;9.114;2022-07-24T05:44:10;11.00;;;10.00;;
9124;SDS011;4597;48.730;9.114;2022-07-24T05:46:36;10.90;;;10.00;;
9124;SDS011;4597;48.730;9.114;2022-07-24T05:49:01;11.20;;;10.30;;
9124;SDS011;4597;48.730;9.114;2022-07-24T05:51:27;10.87;;;10.00;;
9124;SDS011;4597;48.730;9.114;2022-07-24T05:53:53;11.20;;;10.30;;
9124;SDS011;4597;48.730;9.114;2022-07-24T05:56:18;10.90;;;9.90;;
9124;SDS011;4597;48.730;9.114;2022-07-24T05:58:44;10.47;;;9.67;;
9124;SDS011;4597;48.730;9.114;2022-07-24T06:01:09;11.80;;;10.70;;
9124;SDS011;4597;48.730;9.114;2022-07-24T06:03:35;10.50;;;9.50;;
9124;SDS011;4597;48.730;9.114;2022-07-24T06:06:01;10.53;;;9.63;;
9124;SDS011;4597;48.730;9.114;2022-07-24T06:08:28;11.43;;;10.40;;
9124;SDS011;4597;48.730;9.114;2022-07-24T06:10:54;10.20;;;9.30;;
9124;SDS011;4597;48.730;9.114;2022-07-24T06:13:19;10.63;;;9.83;;
9124;SDS011;4597;48.730;9.114;2022-07-24T06:15:45;11.20;;;10.30;;
9124;SDS011;4597;48.730;9.114;2022-07-24T06:18:10;11.40;;;10.30;;
9124;SDS011;4597;48.730;9.114;2022-07-24T06:20:36;10.20;;;9.40;;
9124;SDS011;4597;48.730;9.114;2022-07-24T06:23:01;11.07;;;10.17;;
9124;SDS011;4597;48.730;9.114;2022-07-24T06:25:27;10.40;;;9.60;;
9124;SDS011;4597;48.730;9.114;2022-07-24T06:27:52;10.77;;;9.90;;
9124;SDS011;4597;48.730;9.114;2022-07-24T06:30:23;10.50;;;9.57;;
9124;SDS011;4597;48.730;9.114;2022-07-24T06:32:51;11.60;;;10.53;;
9124;SDS011;4597;48.730;9.114;2022-07-24T06:35:18;10.80;;;9.90;;
9124;SDS011;4597;48.730;9.114;2022-07-24T06:37:44;11.60;;;10.43;;
9124;SDS011;4597;48.730;9.114;2022-07-24T06:40:10;9.80;;;9.00;;
9124;SDS011;4597;48.730;9.114;2022-07-24T06:42:36;10.60;;;9.70;;
9124;SDS011;4597;48.730;9.114;2022-07-24T06:45:02;10.20;;;9.20;;
9124;SDS011;4597;48.730;9.114;2022-07-24T06:47:28;10.80;;;9.90;;
9124;SDS011;4597;48.730;9.114;2022-07-24T06:49:53;11.03;;;10.13;;
9124;SDS011;4597;48.730;9.114;2022-07-24T06:52:19;10.67;;;9.77;;
9124;SDS011;4597;48.730;9.114;2022-07-24T06:54:45;9.73;;;9.03;;
9124;SDS011;4597;48.730;9.114;2022-07-24T06:57:11;10.53;;;9.57;;
9124;SDS011;4597;48.730;9.114;2022-07-24T06:59:36;9.87;;;8.97;;
9124;SDS011;4597;48.730;9.114;2022-07-24T07:02:02;10.60;;;9.60;;
9124;SDS011;4597;48.730;9.114;2022-07-24T07:04:27;10.03;;;9.23;;
9124;SDS011;4597;48.730;9.114;2022-07-24T07:06:53;10.90;;;9.93;;
9124;SDS011;4597;48.730;9.114;2022-07-24T07:09:18;9.27;;;8.67;;
9124;SDS011;4597;48.730;9.114;2022-07-24T07:11:44;10.47;;;9.57;;
9124;SDS011;4597;48.730;9.114;2022-07-24T07:14:09;9.30;;;8.70;;
9124;SDS011;4597;48.730;9.114;2022-07-24T07:16:35;9.77;;;8.83;;
9124;SDS011;4597;48.730;9.114;2022-07-24T07:19:00;10.00;;;9.20;;
9124;SDS011;4597;48.730;9.114;2022-07-24T07:21:26;10.32;;;9.13;;
9124;SDS011;4597;48.730;9.114;2022-07-24T07:23:51;9.90;;;9.00;;
9124;SDS011;4597;48.730;9.114;2022-07-24T07:26:17;9.60;;;8.90;;
9124;SDS011;4597;48.730;9.114;2022-07-24T07:28:43;10.05;;;9.25;;
9124;SDS011;4597;48.730;9.114;2022-07-24T07:31:08;10.00;;;9.30;;
9124;SDS011;4597;48.730;9.114;2022-07-24T07:33:34;9.65;;;8.88;;
9124;SDS011;4597;48.730;9.114;2022-07-24T07:36:00;10.10;;;9.15;;
9124;SDS011;4597;48.730;9.114;2022-07-24T07:38:25;9.93;;;9.02;;
9124;SDS011;4597;48.730;9.114;2022-07-24T07:40:51;10.07;;;9.18;;
9124;SDS011;4597;48.730;9.114;2022-07-24T07:43:16;10.27;;;9.38;;
9124;SDS011;4597;48.730;9.114;2022-07-24T07:45:42;9.60;;;8.90;;
9124;SDS011;4597;48.730;9.114;2022-07-24T07:48:07;10.17;;;9.37;;
9124;SDS011;4597;48.730;9.114;2022-07-24T07:50:33;10.13;;;9.23;;
9124;SDS011;4597;48.730;9.114;2022-07-24T07:52:59;9.63;;;8.82;;
9124;SDS011;4597;48.730;9.114;2022-07-24T07:55:24;10.00;;;9.23;;
9124;SDS011;4597;48.730;9.114;2022-07-24T07:57:50;9.30;;;8.60;;
9124;SDS011;4597;48.730;9.114;2022-07-24T08:00:16;9.63;;;8.57;;
9124;SDS011;4597;48.730;9.114;2022-07-24T08:02:43;9.57;;;8.85;;
9124;SDS011;4597;48.730;9.114;2022-07-24T08:05:09;9.18;;;8.38;;
9124;SDS011;4597;48.730;9.114;2022-07-24T08:07:34;8.40;;;7.70;;
9124;SDS011;4597;48.730;9.114;2022-07-24T08:10:00;9.13;;;8.32;;
9124;SDS011;4597;48.730;9.114;2022-07-24T08:12:26;8.85;;;8.15;;
9124;SDS011;4597;48.730;9.114;2022-07-24T08:14:51;8.50;;;7.90;;
9124;SDS011;4597;48.730;9.114;2022-07-24T08:17:17;8.80;;;7.97;;
9124;SDS011;4597;48.730;9.114;2022-07-24T08:19:42;8.52;;;7.97;;
9124;SDS011;4597;48.730;9.114;2022-07-24T08:22:08;8.23;;;7.53;;
9124;SDS011;4597;48.730;9.114;2022-07-24T08:24:34;9.00;;;8.10;;
9124;SDS011;4597;48.730;9.114;2022-07-24T08:26:59;9.85;;;8.98;;
9124;SDS011;4597;48.730;9.114;2022-07-24T08:29:26;8.90;;;8.10;;
9124;SDS011;4597;48.730;9.114;2022-07-24T08:31:51;9.20;;;8.43;;
9124;SDS011;4597;48.730;9.114;2022-07-24T08:34:17;8.68;;;7.85;;
9124;SDS011;4597;48.730;9.114;2022-07-24T08:36:43;9.43;;;8.63;;
9124;SDS011;4597;48.730;9.114;2022-07-24T08:39:11;9.05;;;8.25;;
9124;SDS011;4597;48.730;9.114;2022-07-24T08:41:37;8.52;;;7.93;;
9124;SDS011;4597;48.730;9.114;2022-07-24T08:44:03;8.52;;;7.82;;
9124;SDS011;4597;48.730;9.114;2022-07-24T08:46:30;8.65;;;7.97;;
9124;SDS011;4597;48.730;9.114;2022-07-24T08:48:56;9.70;;;8.60;;
9124;SDS011;4597;48.730;9.114;2022-07-24T08:51:22;8.07;;;7.55;;
9124;SDS011;4597;48.730;9.114;2022-07-24T08:53:53;10.27;;;8.70;;
9124;SDS011;4597;48.730;9.114;2022-07-24T08:56:20;9.52;;;8.73;;
9124;SDS011;4597;48.730;9.114;2022-07-24T08:58:45;8.65;;;8.05;;
9124;SDS011;4597;48.730;9.114;2022-07-24T09:01:11;8.55;;;7.85;;
9124;SDS011;4597;48.730;9.114;2022-07-24T09:03:40;8.52;;;7.90;;
9124;SDS011;4597;48.730;9.114;2022-07-24T09:06:08;8.55;;;7.85;;
9124;SDS011;4597;48.730;9.114;2022-07-24T09:08:34;8.55;;;7.85;;
9124;SDS011;4597;48.730;9.114;2022-07-24T09:11:01;8.48;;;7.75;;
9124;SDS011;4597;48.730;9.114;2022-07-24T09:13:32;9.25;;;8.55;;
9124;SDS011;4597;48.730;9.114;2022-07-24T09:16:18;8.70;;;7.93;;
9124;SDS011;4597;48.730;9.114;2022-07-24T09:18:48;9.30;;;8.50;;
9124;SDS011;4597;48.730;9.114;2022-07-24T09:21:27;8.68;;;7.97;;
9124;SDS011;4597;48.730;9.114;2022-07-24T09:23:58;8.77;;;8.07;;
9124;SDS011;4597;48.730;9.114;2022-07-24T09:26:49;8.88;;;7.97;;
9124;SDS011;4597;48.730;9.114;2022-07-24T09:29:14;8.93;;;8.13;;
9124;SDS011;4597;48.730;9.114;2022-07-24T09:31:54;8.80;;;8.10;;
9124;SDS011;4597;48.730;9.114;2022-07-24T09:34:27;8.77;;;8.18;;
9124;SDS011;4597;48.730;9.114;2022-07-24T09:37:05;8.65;;;7.90;;
9124;SDS011;4597;48.730;9.114;2022-07-24T09:39:32;8.48;;;7.88;;
9124;SDS011;4597;48.730;9.114;2022-07-24T09:42:01;8.02;;;7.32;;
9124;SDS011;4597;48.730;9.114;2022-07-24T09:44:28;9.00;;;8.35;;
9124;SDS011;4597;48.730;9.114;2022-07-24T09:46:58;8.02;;;7.43;;
9124;SDS011;4597;48.730;9.114;2022-07-24T09:49:26;8.35;;;7.57;;
9124;SDS011;4597;48.730;9.114;2022-07-24T09:54:31;7.35;;;6.85;;
9124;SDS011;4597;48.730;9.114;2022-07-24T09:59:55;6.85;;;6.25;;
9124;SDS011;4597;48.730;9.114;2022-07-24T10:02:26;6.75;;;6.13;;
9124;SDS011;4597;48.730;9.114;2022-07-24T10:04:54;7.85;;;7.18;;
9124;SDS011;4597;48.730;9.114;2022-07-24T10:07:21;8.07;;;7.43;;
9124;SDS011;4597;48.730;9.114;2022-07-24T10:09:50;7.47;;;6.78;;
9124;SDS011;4597;48.730;9.114;2022-07-24T10:12:18;8.35;;;7.55;;
9124;SDS011;4597;48.730;9.114;2022-07-24T10:14:46;7.22;;;6.63;;
9124;SDS011;4597;48.730;9.114;2022-07-24T10:17:14;7.13;;;6.43;;
9124;SDS011;4597;48.730;9.114;2022-07-24T10:22:16;7.50;;;7.00;;
9124;SDS011;4597;48.730;9.114;2022-07-24T10:27:29;6.75;;;6.28;;
9124;SDS011;4597;48.730;9.114;2022-07-24T10:29:59;6.95;;;6.45;;
9124;SDS011;4597;48.730;9.114;2022-07-24T10:32:33;7.38;;;6.80;;
9124;SDS011;4597;48.730;9.114;2022-07-24T10:35:07;7.40;;;6.90;;
9124;SDS011;4597;48.730;9.114;2022-07-24T10:43:26;7.82;;;7.22;;
9124;SDS011;4597;48.730;9.114;2022-07-24T10:58:52;8.30;;;7.70;;
9124;SDS011;4597;48.730;9.114;2022-07-24T11:01:29;7.70;;;7.10;;
9124;SDS011;4597;48.730;9.114;2022-07-24T11:04:01;8.98;;;8.27;;
9124;SDS011;4597;48.730;9.114;2022-07-24T11:09:24;7.93;;;7.32;;
9124;SDS011;4597;48.730;9.114;2022-07-24T11:14:23;8.30;;;7.57;;
9124;SDS011;4597;48.730;9.114;2022-07-24T11:16:50;8.73;;;8.13;;
9124;SDS011;4597;48.730;9.114;2022-07-24T11:21:43;8.20;;;7.60;;
9124;SDS011;4597;48.730;9.114;2022-07-24T11:34:23;8.35;;;7.70;;
9124;SDS011;4597;48.730;9.114;2022-07-24T11:36:49;8.80;;;8.05;;
9124;SDS011;4597;48.730;9.114;2022-07-24T11:39:17;7.97;;;7.30;;
9124;SDS011;4597;48.730;9.114;2022-07-24T11:41:45;8.38;;;7.78;;
9124;SDS011;4597;48.730;9.114;2022-07-24T11:44:21;8.18;;;7.57;;
9124;SDS011;4597;48.730;9.114;2022-07-24T11:46:53;8.25;;;7.65;;
9124;SDS011;4597;48.730;9.114;2022-07-24T11:49:21;7.70;;;7.20;;
9124;SDS011;4597;48.730;9.114;2022-07-24T11:51:48;8.00;;;7.38;;
9124;SDS011;4597;48.730;9.114;2022-07-24T11:54:20;8.02;;;7.35;;
9124;SDS011;4597;48.730;9.114;2022-07-24T11:56:49;7.40;;;6.80;;
9124;SDS011;4597;48.730;9.114;2022-07-24T11:59:28;8.05;;;7.35;;
9124;SDS011;4597;48.730;9.114;2022-07-24T12:02:04;8.35;;;7.60;;
9124;SDS011;4597;48.730;9.114;2022-07-24T12:04:31;7.82;;;7.07;;
9124;SDS011;4597;48.730;9.114;2022-07-24T12:06:57;7.72;;;7.05;;
9124;SDS011;4597;48.730;9.114;2022-07-24T12:09:23;8.15;;;7.47;;
9124;SDS011;4597;48.730;9.114;2022-07-24T12:11:48;8.23;;;7.63;;
9124;SDS011;4597;48.730;9.114;2022-07-24T12:14:15;7.93;;;7.43;;
9124;SDS011;4597;48.730;9.114;2022-07-24T12:16:43;8.43;;;7.72;;
9124;SDS011;4597;48.730;9.114;2022-07-24T12:19:16;8.32;;;7.72;;
9124;SDS011;4597;48.730;9.114;2022-07-24T12:21:52;8.27;;;7.60;;
9124;SDS011;4597;48.730;9.114;2022-07-24T12:24:18;7.63;;;6.95;;
9124;SDS011;4597;48.730;9.114;2022-07-24T12:29:22;9.15;;;8.35;;
9124;SDS011;4597;48.730;9.114;2022-07-24T12:31:48;8.52;;;7.68;;
9124;SDS011;4597;48.730;9.114;2022-07-24T12:34:15;7.88;;;7.38;;
9124;SDS011;4597;48.730;9.114;2022-07-24T12:36:41;8.52;;;7.82;;
9124;SDS011;4597;48.730;9.114;2022-07-24T12:39:07;8.45;;;7.85;;
9124;SDS011;4597;48.730;9.114;2022-07-24T12:41:40;8.07;;;7.53;;
9124;SDS011;4597;48.730;9.114;2022-07-24T12:44:08;8.27;;;7.60;;
9124;SDS011;4597;48.730;9.114;2022-07-24T12:46:35;8.63;;;8.02;;
9124;SDS011;4597;48.730;9.114;2022-07-24T12:49:07;8.32;;;7.72;;
9124;SDS011;4597;48.730;9.114;2022-07-24T12:51:55;7.70;;;7.20;;
9124;SDS011;4597;48.730;9.114;2022-07-24T12:54:34;7.95;;;7.40;;
9124;SDS011;4597;48.730;9.114;2022-07-24T12:57:07;8.57;;;7.82;;
9124;SDS011;4597;48.730;9.114;2022-07-24T12:59:35;9.55;;;8.38;;
9124;SDS011;4597;48.730;9.114;2022-07-24T13:02:06;7.90;;;7.30;;
9124;SDS011;4597;48.730;9.114;2022-07-24T13:04:40;7.40;;;7.00;;
9124;SDS011;4597;48.730;9.114;2022-07-24T13:07:13;8.93;;;7.93;;
9124;SDS011;4597;48.730;9.114;2022-07-24T13:09:40;8.88;;;8.20;;
9124;SDS011;4597;48.730;9.114;2022-07-24T13:12:06;8.20;;;7.63;;
9124;SDS011;4597;48.730;9.114;2022-07-24T13:14:33;8.10;;;7.50;;
9124;SDS011;4597;48.730;9.114;2022-07-24T13:17:03;8.13;;;7.55;;
9124;SDS011;4597;48.730;9.114;2022-07-24T13:19:40;7.93;;;7.43;;
9124;SDS011;4597;48.730;9.114;2022-07-24T13:22:07;8.60;;;7.90;;
9124;SDS011;4597;48.730;9.114;2022-07-24T13:24:33;10.73;;;7.75;;
9124;SDS011;4597;48.730;9.114;2022-07-24T13:26:59;8.27;;;7.72;;
9124;SDS011;4597;48.730;9.114;2022-07-24T13:29:25;8.05;;;7.55;;
9124;SDS011;4597;48.730;9.114;2022-07-24T13:31:52;8.05;;;7.55;;
9124;SDS011;4597;48.730;9.114;2022-07-24T13:34:18;8.30;;;7.72;;
9124;SDS011;4597;48.730;9.114;2022-07-24T13:36:44;7.72;;;7.20;;
9124;SDS011;4597;48.730;9.114;2022-07-24T13:39:11;8.15;;;7.65;;
9124;SDS011;4597;48.730;9.114;2022-07-24T13:41:37;8.20;;;7.40;;
9124;SDS011;4597;48.730;9.114;2022-07-24T13:44:03;8.70;;;8.00;;
9124;SDS011;4597;48.730;9.114;2022-07-24T13:46:29;7.75;;;7.25;;
9124;SDS011;4597;48.730;9.114;2022-07-24T13:48:55;8.80;;;8.20;;
9124;SDS011;4597;48.730;9.114;2022-07-24T13:51:21;8.77;;;8.13;;
9124;SDS011;4597;48.730;9.114;2022-07-24T13:53:47;8.90;;;8.20;;
9124;SDS011;4597;48.730;9.114;2022-07-24T13:56:12;9.32;;;8.50;;
9124;SDS011;4597;48.730;9.114;2022-07-24T13:58:38;8.60;;;7.90;;
9124;SDS011;4597;48.730;9.114;2022-07-24T14:01:07;8.50;;;7.90;;
9124;SDS011;4597;48.730;9.114;2022-07-24T14:03:33;8.95;;;8.25;;
9124;SDS011;4597;48.730;9.114;2022-07-24T14:05:59;8.85;;;8.25;;
9124;SDS011;4597;48.730;9.114;2022-07-24T14:08:25;8.32;;;7.82;;
9124;SDS011;4597;48.730;9.114;2022-07-24T14:10:52;8.80;;;8.13;;
9124;SDS011;4597;48.730;9.114;2022-07-24T14:13:17;8.68;;;8.13;;
9124;SDS011;4597;48.730;9.114;2022-07-24T14:15:43;8.73;;;8.13;;
9124;SDS011;4597;48.730;9.114;2022-07-24T14:18:08;8.68;;;8.00;;
9124;SDS011;4597;48.730;9.114;2022-07-24T14:20:34;8.20;;;7.70;;
9124;SDS011;4597;48.730;9.114;2022-07-24T14:23:00;8.82;;;8.32;;
9124;SDS011;4597;48.730;9.114;2022-07-24T14:25:25;8.10;;;7.60;;
9124;SDS011;4597;48.730;9.114;2022-07-24T14:27:51;9.32;;;8.73;;
9124;SDS011;4597;48.730;9.114;2022-07-24T14:30:16;8.93;;;8.32;;
9124;SDS011;4597;48.730;9.114;2022-07-24T14:32:42;9.20;;;8.60;;
9124;SDS011;4597;48.730;9.114;2022-07-24T14:35:08;9.75;;;9.18;;
9124;SDS011;4597;48.730;9.114;2022-07-24T14:37:34;9.40;;;8.90;;
9124;SDS011;4597;48.730;9.114;2022-07-24T14:40:05;9.13;;;8.57;;
9124;SDS011;4597;48.730;9.114;2022-07-24T14:42:32;9.70;;;9.15;;
9124;SDS011;4597;48.730;9.114;2022-07-24T14:44:58;9.85;;;9.15;;
9124;SDS011;4597;48.730;9.114;2022-07-24T14:47:23;9.05;;;8.65;;
9124;SDS011;4597;48.730;9.114;2022-07-24T14:49:50;10.98;;;10.10;;
9124;SDS011;4597;48.730;9.114;2022-07-24T14:52:16;9.80;;;9.30;;
9124;SDS011;4597;48.730;9.114;2022-07-24T14:54:43;9.63;;;9.07;;
9124;SDS011;4597;48.730;9.114;2022-07-24T14:57:09;10.82;;;9.95;;
9124;SDS011;4597;48.730;9.114;2022-07-24T14:59:35;10.25;;;9.65;;
9124;SDS011;4597;48.730;9.114;2022-07-24T15:02:01;9.40;;;8.90;;
9124;SDS011;4597;48.730;9.114;2022-07-24T15:04:26;9.90;;;9.30;;
9124;SDS011;4597;48.730;9.114;2022-07-24T15:06:52;9.57;;;8.98;;
9124;SDS011;4597;48.730;9.114;2022-07-24T15:09:17;10.40;;;9.70;;
9124;SDS011;4597;48.730;9.114;2022-07-24T15:11:43;10.18;;;9.57;;
9124;SDS011;4597;48.730;9.114;2022-07-24T15:14:09;9.80;;;9.20;;
9124;SDS011;4597;48.730;9.114;2022-07-24T15:16:34;9.75;;;9.15;;
9124;SDS011;4597;48.730;9.114;2022-07-24T15:19:00;9.73;;;9.02;;
9124;SDS011;4597;48.730;9.114;2022-07-24T15:21:25;8.88;;;8.38;;
9124;SDS011;4597;48.730;9.114;2022-07-24T15:23:51;8.77;;;8.18;;
9124;SDS011;4597;48.730;9.114;2022-07-24T15:26:16;9.77;;;8.88;;
9124;SDS011;4597;48.730;9.114;2022-07-24T15:28:42;9.52;;;8.95;;
9124;SDS011;4597;48.730;9.114;2022-07-24T15:31:07;8.57;;;8.07;;
9124;SDS011;4597;48.730;9.114;2022-07-24T15:33:34;8.75;;;8.15;;
9124;SDS011;4597;48.730;9.114;2022-07-24T15:36:00;9.50;;;8.90;;
9124;SDS011;4597;48.730;9.114;2022-07-24T15:38:26;8.82;;;8.32;;
9124;SDS011;4597;48.730;9.114;2022-07-24T15:40:52;8.90;;;8.40;;
9124;SDS011;4597;48.730;9.114;2022-07-24T15:43:17;8.80;;;8.30;;
9124;SDS011;4597;48.730;9.114;2022-07-24T15:45:43;9.43;;;8.82;;
9124;SDS011;4597;48.730;9.114;2022-07-24T15:48:08;9.15;;;8.50;;
9124;SDS011;4597;48.730;9.114;2022-07-24T15:50:34;9.40;;;8.80;;
9124;SDS011;4597;48.730;9.114;2022-07-24T15:52:59;8.88;;;8.13;;
9124;SDS011;4597;48.730;9.114;2022-07-24T15:55:25;9.43;;;8.65;;